createdAt,value
2019-04-11T00:01:36.154Z,52.97
2019-04-11T00:03:56.200Z,53.04
2019-04-11T00:06:25.714Z,53.40
2019-04-11T00:08:55.120Z,53.35
2019-04-11T00:11:24.522Z,53.62
2019-04-11T00:13:53.850Z,53.70
2019-04-11T00:16:23.552Z,53.98
2019-04-11T00:18:54.723Z,54.17
2019-04-11T00:21:24.979Z,54.13
2019-04-11T00:23:54.579Z,54.46
2019-04-11T00:26:24.446Z,54.52
2019-04-11T00:28:54.231Z,54.72
2019-04-11T00:31:25.064Z,54.63
2019-04-11T00:33:54.512Z,55.21
2019-04-11T00:36:24.202Z,55.63
2019-04-11T00:38:54.972Z,55.36
2019-04-11T00:41:24.454Z,55.35
2019-04-11T00:43:54.637Z,55.35
2019-04-11T00:46:24.555Z,55.20
2019-04-11T00:48:54.459Z,55.31
2019-04-11T00:51:23.875Z,55.65
2019-04-11T00:53:54.129Z,56.12
2019-04-11T00:56:24.170Z,55.73
2019-04-11T00:58:54.008Z,55.87
2019-04-11T01:01:23.975Z,56.04
2019-04-11T01:03:53.716Z,55.99
2019-04-11T01:06:23.182Z,56.00
2019-04-11T01:08:53.720Z,56.36
2019-04-11T01:11:23.746Z,56.71
2019-04-11T01:13:55.524Z,56.74
2019-04-11T01:16:45.145Z,56.38
2019-04-11T01:19:14.470Z,56.80
2019-04-11T01:21:44.518Z,56.98
2019-04-11T01:24:14.198Z,56.94
2019-04-11T01:26:43.535Z,57.57
2019-04-11T01:29:13.422Z,57.02
2019-04-11T01:31:44.455Z,57.07
2019-04-11T01:34:16.114Z,57.01
2019-04-11T01:36:45.574Z,57.29
2019-04-11T01:39:32.972Z,57.32
2019-04-11T01:42:02.753Z,57.49
2019-04-11T01:44:32.579Z,57.26
2019-04-11T01:47:02.543Z,57.81
2019-04-11T01:49:32.402Z,58.18
2019-04-11T01:52:04.733Z,57.76
2019-04-11T01:54:33.904Z,57.96
2019-04-11T01:57:03.549Z,58.35
2019-04-11T01:59:33.801Z,57.91
2019-04-11T02:02:11.484Z,58.36
2019-04-11T02:04:46.051Z,58.24
2019-04-11T02:07:15.505Z,58.79
2019-04-11T02:09:44.853Z,59.14
2019-04-11T02:12:14.250Z,58.99
2019-04-11T02:14:43.911Z,59.03
2019-04-11T02:17:13.312Z,58.69
2019-04-11T02:19:42.657Z,59.20
2019-04-11T02:22:19.578Z,59.26
2019-04-11T02:24:54.304Z,59.84
2019-04-11T02:27:25.977Z,59.52
2019-04-11T02:29:55.557Z,59.87
2019-04-11T02:32:28.629Z,59.98
2019-04-11T02:34:59.159Z,60.49
2019-04-11T02:37:29.372Z,60.82
2019-04-11T02:40:00.092Z,61.01
2019-04-11T02:42:30.660Z,61.05
2019-04-11T02:45:16.530Z,61.31
2019-04-11T02:47:34.692Z,61.20
2019-04-11T02:50:03.682Z,61.35
2019-04-11T02:52:33.635Z,61.79
2019-04-11T02:55:04.085Z,61.53
2019-04-11T02:57:35.893Z,61.79
2019-04-11T03:00:08.572Z,61.56
2019-04-11T03:02:39.385Z,62.37
2019-04-11T03:05:10.127Z,61.92
2019-04-11T03:07:42.181Z,61.73
2019-04-11T03:10:13.841Z,62.26
2019-04-11T03:12:43.873Z,62.66
2019-04-11T03:15:27.432Z,62.61
2019-04-11T03:17:47.891Z,62.87
2019-04-11T03:20:28.316Z,62.44
2019-04-11T03:22:54.167Z,62.92
2019-04-11T03:25:19.958Z,63.05
2019-04-11T03:27:51.601Z,62.74
2019-04-11T03:30:30.456Z,63.18
2019-04-11T03:38:18.793Z,63.46
2019-04-11T03:40:47.044Z,63.71
2019-04-11T03:43:11.114Z,63.43
2019-04-11T03:45:50.070Z,63.83
2019-04-11T03:48:12.456Z,63.78
2019-04-11T03:50:32.875Z,63.99
2019-04-11T03:53:04.061Z,63.88
2019-04-11T03:55:34.861Z,64.28
2019-04-11T03:58:06.186Z,64.31
2019-04-11T04:00:38.783Z,64.24
2019-04-11T04:03:09.269Z,64.22
2019-04-11T04:05:41.088Z,64.31
2019-04-11T04:08:10.861Z,64.26
2019-04-11T04:10:43.596Z,64.53
2019-04-11T04:13:16.991Z,64.79
2019-04-11T04:16:17.072Z,64.52
2019-04-11T04:18:38.089Z,64.62
2019-04-11T04:21:15.613Z,64.73
2019-04-11T04:23:46.885Z,65.35
2019-04-11T04:26:17.002Z,65.45
2019-04-11T04:28:47.618Z,65.04
2019-04-11T04:31:18.429Z,64.79
2019-04-11T04:33:48.340Z,65.03
2019-04-11T04:36:18.326Z,65.38
2019-04-11T04:38:48.871Z,65.23
2019-04-11T04:41:30.935Z,65.58
2019-04-11T04:43:52.787Z,65.49
2019-04-11T04:46:34.735Z,65.37
2019-04-11T04:48:55.958Z,65.62
2019-04-11T04:51:26.741Z,65.66
2019-04-11T04:53:57.772Z,65.26
2019-04-11T04:56:31.629Z,65.22
2019-04-11T04:58:58.860Z,65.51
2019-04-11T05:01:29.009Z,65.53
2019-04-11T05:03:59.339Z,65.43
2019-04-11T05:06:28.834Z,65.39
2019-04-11T05:08:59.714Z,65.96
2019-04-11T05:11:30.568Z,66.02
2019-04-11T05:14:00.910Z,65.90
2019-04-11T05:16:31.322Z,66.06
2019-04-11T05:19:01.824Z,66.43
2019-04-11T05:21:31.147Z,66.14
2019-04-11T05:24:00.482Z,66.59
2019-04-11T05:26:29.819Z,66.16
2019-04-11T05:28:59.151Z,66.32
2019-04-11T05:31:28.480Z,66.48
2019-04-11T05:33:57.832Z,67.11
2019-04-11T05:36:28.301Z,67.23
2019-04-11T05:38:58.258Z,67.08
2019-04-11T05:41:27.678Z,66.89
2019-04-11T05:44:00.765Z,67.56
2019-04-11T05:46:35.226Z,67.40
2019-04-11T05:49:03.857Z,66.92
2019-04-11T05:51:41.611Z,67.32
2019-04-11T05:54:07.653Z,66.82
2019-04-11T05:56:36.049Z,66.83
2019-04-11T05:59:24.453Z,66.75
2019-04-11T06:01:55.810Z,66.57
2019-04-11T06:04:28.553Z,66.41
2019-04-11T06:07:00.076Z,66.25
2019-04-11T06:09:36.024Z,65.91
2019-04-11T06:12:21.451Z,65.48
2019-04-11T06:15:05.884Z,64.99
2019-04-11T06:17:36.529Z,63.59
2019-04-11T06:20:12.613Z,63.54
2019-04-11T06:22:43.537Z,63.21
2019-04-11T06:25:16.452Z,62.99
2019-04-11T06:27:47.441Z,62.63
2019-04-11T06:30:21.261Z,62.24
2019-04-11T06:33:08.110Z,62.52
2019-04-11T06:35:44.910Z,61.81
2019-04-11T06:38:25.033Z,61.92
2019-04-11T06:41:02.024Z,61.64
2019-04-11T06:43:36.241Z,61.21
2019-04-11T06:46:16.666Z,60.62
2019-04-11T06:48:47.740Z,60.94
2019-04-11T06:51:19.797Z,60.98
2019-04-11T06:53:56.900Z,60.76
2019-04-11T06:56:30.566Z,60.54
2019-04-11T06:59:04.398Z,60.29
2019-04-11T07:01:34.228Z,60.03
2019-04-11T07:04:05.332Z,60.05
2019-04-11T07:06:36.302Z,60.05
2019-04-11T07:09:09.564Z,59.43
2019-04-11T07:11:43.228Z,59.62
2019-04-11T07:14:25.586Z,59.19
2019-04-11T07:17:13.780Z,59.30
2019-04-11T07:20:02.529Z,58.89
2019-04-11T07:22:50.948Z,58.62
2019-04-11T07:25:22.403Z,58.77
2019-04-11T07:27:59.450Z,58.43
2019-04-11T07:30:39.635Z,57.38
2019-04-11T07:33:26.953Z,58.23
2019-04-11T07:36:14.637Z,58.07
2019-04-11T07:39:03.254Z,58.00
2019-04-11T07:41:39.159Z,57.43
2019-04-11T07:44:10.950Z,57.34
2019-04-11T07:46:47.619Z,56.98
2019-04-11T07:49:18.583Z,56.54
2019-04-11T07:51:50.807Z,56.86
2019-04-11T07:54:20.555Z,56.43
2019-04-11T07:57:01.375Z,55.62
2019-04-11T07:59:39.710Z,56.41
2019-04-11T08:02:24.322Z,55.66
2019-04-11T08:05:11.134Z,55.27
2019-04-11T08:07:43.073Z,54.95
2019-04-11T08:10:14.193Z,54.69
2019-04-11T08:12:44.085Z,54.66
2019-04-11T08:15:15.484Z,53.79
2019-04-11T08:17:46.067Z,54.02
2019-04-11T08:20:33.532Z,53.59
2019-04-11T08:23:05.615Z,53.44
2019-04-11T08:25:53.669Z,52.79
2019-04-11T08:28:23.240Z,52.76
2019-04-11T08:30:55.184Z,51.72
2019-04-11T08:33:26.735Z,52.93
2019-04-11T08:35:58.321Z,52.86
2019-04-11T08:38:29.758Z,52.18
2019-04-11T08:41:01.108Z,54.33
2019-04-11T08:43:32.030Z,54.13
2019-04-11T08:46:15.104Z,50.99
2019-04-11T08:48:53.060Z,50.99
2019-04-11T08:51:25.289Z,49.32
2019-04-11T08:53:59.374Z,49.78
2019-04-11T08:56:29.576Z,50.38
2019-04-11T08:59:34.094Z,49.34
2019-04-11T09:02:04.627Z,49.93
2019-04-11T09:05:03.183Z,49.44
2019-04-11T09:07:41.426Z,47.91
2019-04-11T09:10:31.709Z,47.84
2019-04-11T09:13:09.084Z,46.55
2019-04-11T09:15:53.010Z,45.36
2019-04-11T09:18:22.360Z,45.02
2019-04-11T09:21:04.827Z,45.97
2019-04-11T09:23:35.796Z,44.20
2019-04-11T09:26:10.183Z,43.79
2019-04-11T09:28:41.834Z,42.01
2019-04-11T09:31:29.608Z,43.09
2019-04-11T09:34:19.575Z,41.76
2019-04-11T09:36:59.601Z,40.79
2019-04-11T09:39:30.976Z,42.41
2019-04-11T09:42:19.806Z,41.13
2019-04-11T09:44:49.861Z,40.86
2019-04-11T09:47:36.927Z,41.61
2019-04-11T09:50:20.441Z,39.24
2019-04-11T09:52:51.651Z,39.08
2019-04-11T09:55:29.064Z,37.54
2019-04-11T09:58:01.140Z,37.35
2019-04-11T10:00:48.454Z,38.17
2019-04-11T10:03:19.741Z,39.32
2019-04-11T10:05:51.631Z,40.08
2019-04-11T10:08:41.650Z,36.89
2019-04-11T10:11:18.646Z,37.00
2019-04-11T10:13:59.599Z,35.49
2019-04-11T10:16:31.732Z,36.14
2019-04-11T10:19:08.509Z,35.59
2019-04-11T10:21:39.635Z,34.99
2019-04-11T10:24:20.856Z,34.03
2019-04-11T10:26:52.149Z,34.49
2019-04-11T10:29:37.935Z,33.61
2019-04-11T10:32:09.061Z,33.76
2019-04-11T10:34:52.220Z,35.08
2019-04-11T10:37:21.879Z,34.13
2019-04-11T10:39:53.594Z,34.91
2019-04-11T10:42:24.597Z,33.40
2019-04-11T10:44:58.353Z,34.66
2019-04-11T10:47:39.290Z,34.87
2019-04-11T10:50:17.550Z,34.20
2019-04-11T10:52:48.937Z,33.30
2019-04-11T10:55:19.855Z,33.43
2019-04-11T10:57:52.035Z,33.76
2019-04-11T11:00:39.737Z,32.16
2019-04-11T11:03:13.842Z,31.92
2019-04-11T11:05:44.774Z,31.85
2019-04-11T11:08:33.596Z,31.57
2019-04-11T11:11:17.499Z,30.74
2019-04-11T11:13:48.042Z,35.64
2019-04-11T11:16:20.250Z,31.44
2019-04-11T11:19:19.484Z,29.55
2019-04-11T11:21:28.577Z,29.02
2019-04-11T11:24:11.831Z,27.96
2019-04-11T11:26:43.267Z,27.50
2019-04-11T11:29:15.771Z,26.31
2019-04-11T11:31:47.666Z,25.42
2019-04-11T11:34:38.914Z,25.30
2019-04-11T11:37:29.111Z,26.29
2019-04-11T11:40:12.028Z,25.37
2019-04-11T11:42:54.644Z,25.58
2019-04-11T11:45:41.559Z,25.81
2019-04-11T11:48:28.663Z,26.87
2019-04-11T11:50:59.654Z,26.20
2019-04-11T11:53:31.385Z,25.61
2019-04-11T11:56:02.139Z,25.44
2019-04-11T11:58:43.549Z,24.44
2019-04-11T12:01:15.692Z,23.73
2019-04-11T12:03:46.746Z,22.30
2019-04-11T12:06:20.765Z,21.68
2019-04-11T12:09:04.918Z,20.68
2019-04-11T12:11:37.967Z,20.41
2019-04-11T12:14:25.169Z,20.87
2019-04-11T12:17:01.953Z,20.50
2019-04-11T12:19:46.865Z,20.79
2019-04-11T12:22:06.214Z,22.31
2019-04-11T12:24:38.579Z,22.08
2019-04-11T12:27:16.400Z,21.92
2019-04-11T12:30:05.813Z,21.69
2019-04-11T12:32:48.718Z,21.23
2019-04-11T12:35:27.716Z,20.27
2019-04-11T12:37:59.954Z,20.37
2019-04-11T12:40:30.923Z,19.59
2019-04-11T12:43:01.917Z,19.80
2019-04-11T12:45:41.613Z,20.00
2019-04-11T12:48:12.109Z,20.35
2019-04-11T12:50:59.677Z,19.71
2019-04-11T12:53:29.100Z,20.54
2019-04-11T12:56:02.716Z,19.97
2019-04-11T12:58:33.859Z,21.02
2019-04-11T13:01:04.846Z,20.92
2019-04-11T13:03:47.576Z,21.41
2019-04-11T13:06:21.342Z,21.57
2019-04-11T13:09:01.361Z,21.46
2019-04-11T13:11:33.940Z,20.05
2019-04-11T13:14:04.910Z,19.07
2019-04-11T13:16:34.268Z,19.94
2019-04-11T13:19:05.217Z,19.85
2019-04-11T13:21:36.354Z,20.57
2019-04-11T13:24:25.703Z,18.54
2019-04-11T13:27:08.541Z,19.38
2019-04-11T13:29:45.015Z,18.87
2019-04-11T13:32:32.136Z,18.41
2019-04-11T13:35:12.173Z,19.10
2019-04-11T13:37:59.253Z,19.33
2019-04-11T13:40:45.677Z,19.26
2019-04-11T13:43:26.613Z,18.44
2019-04-11T13:46:13.859Z,19.00
2019-04-11T13:48:45.084Z,18.39
2019-04-11T13:51:31.310Z,19.67
2019-04-11T13:54:10.791Z,18.99
2019-04-11T13:56:58.514Z,20.24
2019-04-11T13:59:35.215Z,19.83
2019-04-11T14:02:16.481Z,19.53
2019-04-11T14:04:50.891Z,19.83
2019-04-11T14:07:33.934Z,19.06
2019-04-11T14:10:04.996Z,19.23
2019-04-11T14:12:34.392Z,19.39
2019-04-11T14:15:15.475Z,18.77
2019-04-11T14:18:04.953Z,17.68
2019-04-11T14:20:35.349Z,17.98
2019-04-11T14:23:07.583Z,18.47
2019-04-11T14:25:44.791Z,18.53
2019-04-11T14:28:15.763Z,18.53
2019-04-11T14:31:02.506Z,18.49
2019-04-11T14:33:33.492Z,18.68
2019-04-11T14:36:20.658Z,18.50
2019-04-11T14:38:52.286Z,18.66
2019-04-11T14:41:29.422Z,19.74
2019-04-11T14:44:00.427Z,20.14
2019-04-11T14:46:40.422Z,19.70
2019-04-11T14:49:10.529Z,20.28
2019-04-11T14:51:43.913Z,20.50
2019-04-11T14:54:17.287Z,20.24
2019-04-11T14:56:47.890Z,20.45
2019-04-11T14:59:37.882Z,20.71
2019-04-11T15:02:20.797Z,21.04
2019-04-11T15:05:08.413Z,21.95
2019-04-11T15:07:39.128Z,22.32
2019-04-11T15:10:11.455Z,22.98
2019-04-11T15:12:41.273Z,22.70
2019-04-11T15:15:24.759Z,23.50
2019-04-11T15:17:56.074Z,23.70
2019-04-11T15:20:33.924Z,24.63
2019-04-11T15:23:06.919Z,24.41
2019-04-11T15:25:38.594Z,24.31
2019-04-11T15:28:21.785Z,24.63
2019-04-11T15:31:04.571Z,24.79
2019-04-11T15:33:35.540Z,25.24
2019-04-11T15:36:06.533Z,24.96
2019-04-11T15:38:49.809Z,25.66
2019-04-11T15:41:19.441Z,25.67
2019-04-11T15:43:50.415Z,26.07
2019-04-11T15:46:24.341Z,26.57
2019-04-11T15:49:20.885Z,27.02
2019-04-11T15:51:44.094Z,27.90
2019-04-11T15:54:15.067Z,28.08
2019-04-11T15:56:48.988Z,28.14
2019-04-11T15:59:20.018Z,28.22
2019-04-11T16:02:07.152Z,28.22
2019-04-11T16:04:38.145Z,27.52
2019-04-11T16:07:12.075Z,28.10
2019-04-11T16:09:43.944Z,28.48
2019-04-11T16:12:31.452Z,29.40
2019-04-11T16:15:19.557Z,28.76
2019-04-11T16:17:59.097Z,29.23
2019-04-11T16:20:28.461Z,29.64
2019-04-11T16:23:11.505Z,29.19
2019-04-11T16:25:41.529Z,29.61
2019-04-11T16:28:21.698Z,29.60
2019-04-11T16:30:52.906Z,28.85
2019-04-11T16:33:26.301Z,29.62
2019-04-11T16:36:04.293Z,29.14
2019-04-11T16:38:40.670Z,28.97
2019-04-11T16:41:27.846Z,29.16
2019-04-11T16:43:58.824Z,29.67
2019-04-11T16:46:41.818Z,30.59
2019-04-11T16:49:11.405Z,30.39
2019-04-11T16:51:40.813Z,30.44
2019-04-11T16:54:10.354Z,30.89
2019-04-11T16:56:41.722Z,31.45
2019-04-11T16:59:10.701Z,32.06
2019-04-11T17:01:40.033Z,32.14
2019-04-11T17:04:10.562Z,31.84
2019-04-11T17:06:57.503Z,32.13
2019-04-11T17:09:37.596Z,31.67
2019-04-11T17:12:07.191Z,31.87
2019-04-11T17:14:36.548Z,31.97
2019-04-11T17:17:14.960Z,31.52
2019-04-11T17:19:37.173Z,31.21
2019-04-11T17:22:08.222Z,32.38
2019-04-11T17:24:37.585Z,32.93
2019-04-11T17:27:07.192Z,32.17
2019-04-11T17:29:36.763Z,32.33
2019-04-11T17:32:06.107Z,32.17
2019-04-11T17:34:35.438Z,31.98
2019-04-11T17:37:04.872Z,32.69
2019-04-11T17:39:36.810Z,33.22
2019-04-11T17:42:08.270Z,33.86
2019-04-11T17:44:37.597Z,34.03
2019-04-11T17:47:06.950Z,34.42
2019-04-11T17:49:36.282Z,34.26
2019-04-11T17:52:07.198Z,34.42
2019-04-11T17:54:36.533Z,34.29
2019-04-11T17:57:05.872Z,33.94
2019-04-11T17:59:35.219Z,33.90
2019-04-11T18:02:05.724Z,33.46
2019-04-11T18:04:35.059Z,34.12
2019-04-11T18:07:04.724Z,34.14
2019-04-11T18:09:35.036Z,35.34
2019-04-11T18:12:04.433Z,34.99
2019-04-11T18:14:33.789Z,34.86
2019-04-11T18:17:04.566Z,34.80
2019-04-11T18:19:36.255Z,35.20
2019-04-11T18:22:08.292Z,34.98
2019-04-11T18:24:37.016Z,34.64
2019-04-11T18:27:06.591Z,35.29
2019-04-11T18:29:35.925Z,35.03
2019-04-11T18:32:05.412Z,35.35
2019-04-11T18:34:34.813Z,35.52
2019-04-11T18:37:04.518Z,36.36
2019-04-11T18:39:36.044Z,35.97
2019-04-11T18:42:05.731Z,36.34
2019-04-11T18:44:35.066Z,36.22
2019-04-11T18:47:04.463Z,36.69
2019-04-11T18:49:33.810Z,37.00
2019-04-11T18:52:03.120Z,36.43
2019-04-11T18:54:32.724Z,37.01
2019-04-11T18:57:02.063Z,36.88
2019-04-11T18:59:33.807Z,37.04
2019-04-11T19:02:02.464Z,37.30
2019-04-11T19:04:32.977Z,37.18
2019-04-11T19:07:04.811Z,37.14
2019-04-11T19:09:34.965Z,37.06
2019-04-11T19:12:06.226Z,36.67
2019-04-11T19:14:35.626Z,37.11
2019-04-11T19:17:04.970Z,37.18
2019-04-11T19:19:34.321Z,36.87
2019-04-11T19:22:04.119Z,36.98
2019-04-11T19:24:35.660Z,37.35
2019-04-11T19:27:04.686Z,37.87
2019-04-11T19:29:34.137Z,37.67
2019-04-11T19:32:03.554Z,37.93
2019-04-11T19:34:32.877Z,37.59
2019-04-11T19:37:03.759Z,38.04
2019-04-11T19:39:33.559Z,37.99
2019-04-11T19:42:08.819Z,38.13
2019-04-11T19:44:35.218Z,38.58
2019-04-11T19:47:04.628Z,38.62
2019-04-11T19:49:33.960Z,38.56
2019-04-11T19:52:03.299Z,38.80
2019-04-11T19:54:34.035Z,38.93
2019-04-11T19:57:06.942Z,39.25
2019-04-11T19:59:36.282Z,39.29
2019-04-11T20:02:05.687Z,38.77
2019-04-11T20:04:35.126Z,38.87
2019-04-11T20:07:04.654Z,39.28
2019-04-11T20:09:33.981Z,39.26
2019-04-11T20:12:03.324Z,39.69
2019-04-11T20:14:34.882Z,40.47
2019-04-11T20:17:04.027Z,39.88
2019-04-11T20:19:33.421Z,39.68
2019-04-11T20:22:02.906Z,39.62
2019-04-11T20:24:32.249Z,39.77
2019-04-11T20:27:01.595Z,39.42
2019-04-11T20:29:32.387Z,39.63
2019-04-11T20:32:01.725Z,39.46
2019-04-11T20:34:31.054Z,39.87
2019-04-11T20:37:00.464Z,39.17
2019-04-11T20:39:30.096Z,39.50
2019-04-11T20:41:59.436Z,39.72
2019-04-11T20:44:28.772Z,39.70
2019-04-11T20:47:00.407Z,39.76
2019-04-11T20:49:29.461Z,39.33
2019-04-11T20:51:59.075Z,39.88
2019-04-11T20:54:28.472Z,40.23
2019-04-11T20:56:58.075Z,40.63
2019-04-11T20:59:34.341Z,40.90
2019-04-11T21:01:58.773Z,41.15
2019-04-11T21:04:28.087Z,40.93
2019-04-11T21:06:57.442Z,41.12
2019-04-11T21:09:27.944Z,41.98
2019-04-11T21:11:57.281Z,41.66
2019-04-11T21:14:26.637Z,40.89
2019-04-11T21:16:55.979Z,42.45
2019-04-11T21:19:25.710Z,43.11
2019-04-11T21:21:55.028Z,41.69
2019-04-11T21:24:24.364Z,41.92
2019-04-11T21:26:53.996Z,41.83
2019-04-11T21:29:25.628Z,41.90
2019-04-11T21:31:54.386Z,41.27
2019-04-11T21:34:23.717Z,41.65
2019-04-11T21:36:53.052Z,41.41
2019-04-11T21:39:22.457Z,41.04
2019-04-11T21:41:51.788Z,41.56
2019-04-11T21:44:21.137Z,41.34
2019-04-11T21:46:50.753Z,41.26
2019-04-11T21:49:20.112Z,41.38
2019-04-11T21:51:49.433Z,41.38
2019-04-11T21:54:18.770Z,41.39
2019-04-11T21:56:49.600Z,41.34
2019-04-11T21:59:20.384Z,41.24
2019-04-11T22:01:53.863Z,41.49
2019-04-11T22:04:21.696Z,42.03
2019-04-11T22:06:51.139Z,42.11
2019-04-11T22:09:20.832Z,42.37
2019-04-11T22:11:50.223Z,42.21
2019-04-11T22:14:19.550Z,42.27
2019-04-11T22:16:48.882Z,42.65
2019-04-11T22:19:18.474Z,42.32
2019-04-11T22:21:47.837Z,42.66
2019-04-11T22:24:17.167Z,42.85
2019-04-11T22:26:50.135Z,42.31
2019-04-11T22:29:17.525Z,42.82
2019-04-11T22:31:46.877Z,42.76
2019-04-11T22:34:17.847Z,42.93
2019-04-11T22:36:48.151Z,42.41
2019-04-11T22:39:18.259Z,42.86
2019-04-11T22:41:47.602Z,42.79
2019-04-11T22:44:16.931Z,42.49
2019-04-11T22:46:46.579Z,43.18
2019-04-11T22:49:15.907Z,42.54
2019-04-11T22:51:45.246Z,42.70
2019-04-11T22:54:14.581Z,42.57
2019-04-11T22:56:44.879Z,42.71
2019-04-11T22:59:14.603Z,42.35
2019-04-11T23:01:46.727Z,42.21
2019-04-11T23:04:17.148Z,42.35
2019-04-11T23:06:47.249Z,42.77
2019-04-11T23:09:19.509Z,43.24
2019-04-11T23:11:48.204Z,42.89
2019-04-11T23:14:17.546Z,43.15
2019-04-11T23:16:46.871Z,43.14
2019-04-11T23:19:16.203Z,43.59
2019-04-11T23:21:45.826Z,43.66
2019-04-11T23:24:15.150Z,44.30
2019-04-11T23:26:44.496Z,43.85
2019-04-11T23:29:15.963Z,43.67
2019-04-11T23:31:44.849Z,44.69
2019-04-11T23:34:14.179Z,44.23
2019-04-11T23:36:43.516Z,44.45
2019-04-11T23:39:12.849Z,44.18
2019-04-11T23:41:42.574Z,45.08
2019-04-11T23:44:11.901Z,44.67
2019-04-11T23:46:42.225Z,44.59
2019-04-11T23:49:11.557Z,45.27
2019-04-11T23:51:40.892Z,44.61
2019-04-11T23:54:10.236Z,44.75
2019-04-11T23:56:39.572Z,45.36
2019-04-11T23:59:09.232Z,44.84
